<?xml version='1.0' encoding='UTF-8'?><gpx version="1.1" creator="JPX - https://github.com/jenetics/jpx" xmlns="http://www.topografix.com/GPX/1/1"><trk><trkseg><trkpt lat="45.758805" lon="9.4927267"><ele>433.0</ele><time>2026-04-03T15:23:52.153Z</time></trkpt><trkpt lat="45.7588433" lon="9.4924567"><ele>433.0</ele><time>2026-04-03T15:23:56.153Z</time></trkpt><trkpt lat="45.7588017" lon="9.4922917"><ele>433.0</ele><time>2026-04-03T15:23:58.153Z</time></trkpt><trkpt lat="45.758775" lon="9.4921967"><ele>433.0</ele><time>2026-04-03T15:23:59.153Z</time></trkpt><trkpt lat="45.7587467" lon="9.4920917"><ele>433.83333333333337</ele><time>2026-04-03T15:24:00.153Z</time></trkpt><trkpt lat="45.7586967" lon="9.49196"><ele>434.6666666666667</ele><time>2026-04-03T15:24:01.152Z</time></trkpt><trkpt lat="45.7586667" lon="9.491845"><ele>435.5</ele><time>2026-04-03T15:24:02.153Z</time></trkpt><trkpt lat="45.758635" lon="9.4917317"><ele>436.33333333333337</ele><time>2026-04-03T15:24:03.153Z</time></trkpt><trkpt lat="45.7586067" lon="9.491635"><ele>437.1666666666667</ele><time>2026-04-03T15:24:04.153Z</time></trkpt><trkpt lat="45.7585683" lon="9.491505"><ele>438.0</ele><time>2026-04-03T15:24:06.153Z</time></trkpt><trkpt lat="45.758525" lon="9.4914217"><ele>438.0</ele><time>2026-04-03T15:24:09.153Z</time></trkpt><trkpt lat="45.758455" lon="9.4913833"><ele>438.0</ele><time>2026-04-03T15:24:12.152Z</time></trkpt><trkpt lat="45.7583983" lon="9.491315"><ele>438.0</ele><time>2026-04-03T15:24:15.153Z</time></trkpt><trkpt lat="45.758535" lon="9.4913517"><ele>438.0</ele><time>2026-04-03T15:24:32.153Z</time></trkpt><trkpt lat="45.7585733" lon="9.4912667"><ele>438.0</ele><time>2026-04-03T15:24:34.153Z</time></trkpt><trkpt lat="45.7586183" lon="9.4911867"><ele>438.0</ele><time>2026-04-03T15:24:36.154Z</time></trkpt><trkpt lat="45.7587017" lon="9.491035"><ele>436.5714285714286</ele><time>2026-04-03T15:24:40.152Z</time></trkpt><trkpt lat="45.7586683" lon="9.490945"><ele>435.1428571428571</ele><time>2026-04-03T15:24:43.153Z</time></trkpt><trkpt lat="45.7586067" lon="9.4909133"><ele>433.7142857142857</ele><time>2026-04-03T15:24:45.153Z</time></trkpt><trkpt lat="45.7585217" lon="9.49085"><ele>432.28571428571433</ele><time>2026-04-03T15:24:48.153Z</time></trkpt><trkpt lat="45.7584517" lon="9.49081"><ele>430.8571428571429</ele><time>2026-04-03T15:24:50.154Z</time></trkpt><trkpt lat="45.75839" lon="9.4907683"><ele>429.42857142857144</ele><time>2026-04-03T15:24:52.153Z</time></trkpt><trkpt lat="45.7583317" lon="9.4907283"><ele>428.0</ele><time>2026-04-03T15:24:54.154Z</time></trkpt><trkpt lat="45.7582667" lon="9.490685"><ele>426.66666666666663</ele><time>2026-04-03T15:24:56.153Z</time></trkpt><trkpt lat="45.75821" lon="9.4906217"><ele>425.3333333333333</ele><time>2026-04-03T15:24:58.153Z</time></trkpt><trkpt lat="45.7580817" lon="9.490605"><ele>424.0</ele><time>2026-04-03T15:25:03.152Z</time></trkpt><trkpt lat="45.758045" lon="9.4907283"><ele>422.66666666666663</ele><time>2026-04-03T15:25:06.153Z</time></trkpt><trkpt lat="45.7580267" lon="9.490815"><ele>421.3333333333333</ele><time>2026-04-03T15:25:08.153Z</time></trkpt><trkpt lat="45.7579933" lon="9.4909183"><ele>420.0</ele><time>2026-04-03T15:25:11.152Z</time></trkpt><trkpt lat="45.7579583" lon="9.4910217"><ele>420.0</ele><time>2026-04-03T15:25:13.152Z</time></trkpt><trkpt lat="45.75793" lon="9.4911233"><ele>420.0</ele><time>2026-04-03T15:25:15.152Z</time></trkpt><trkpt lat="45.757915" lon="9.4912117"><ele>420.0</ele><time>2026-04-03T15:25:17.152Z</time></trkpt><trkpt lat="45.7578733" lon="9.4912833"><ele>420.0</ele><time>2026-04-03T15:25:19.153Z</time></trkpt><trkpt lat="45.7576483" lon="9.491325"><ele>420.0</ele><time>2026-04-03T15:25:23.154Z</time></trkpt><trkpt lat="45.7575767" lon="9.491325"><ele>419.0</ele><time>2026-04-03T15:25:24.153Z</time></trkpt><trkpt lat="45.7575067" lon="9.49132"><ele>418.0</ele><time>2026-04-03T15:25:25.152Z</time></trkpt><trkpt lat="45.7574367" lon="9.4913083"><ele>417.0</ele><time>2026-04-03T15:25:26.153Z</time></trkpt><trkpt lat="45.7573733" lon="9.4912933"><ele>416.0</ele><time>2026-04-03T15:25:27.152Z</time></trkpt><trkpt lat="45.757255" lon="9.491265"><ele>415.0</ele><time>2026-04-03T15:25:29.152Z</time></trkpt><trkpt lat="45.757135" lon="9.4912367"><ele>414.0</ele><time>2026-04-03T15:25:31.152Z</time></trkpt><trkpt lat="45.757015" lon="9.4912133"><ele>414.0</ele><time>2026-04-03T15:25:33.153Z</time></trkpt><trkpt lat="45.75689" lon="9.4911933"><ele>414.0</ele><time>2026-04-03T15:25:35.154Z</time></trkpt><trkpt lat="45.7568267" lon="9.4911733"><ele>414.0</ele><time>2026-04-03T15:25:36.153Z</time></trkpt><trkpt lat="45.7567583" lon="9.4911433"><ele>414.0</ele><time>2026-04-03T15:25:37.154Z</time></trkpt><trkpt lat="45.756695" lon="9.49111"><ele>414.0</ele><time>2026-04-03T15:25:38.153Z</time></trkpt><trkpt lat="45.7566333" lon="9.4910767"><ele>414.0</ele><time>2026-04-03T15:25:39.153Z</time></trkpt><trkpt lat="45.7565733" lon="9.4910467"><ele>413.0</ele><time>2026-04-03T15:25:40.153Z</time></trkpt><trkpt lat="45.7564" lon="9.4909483"><ele>412.0</ele><time>2026-04-03T15:25:43.153Z</time></trkpt><trkpt lat="45.7562967" lon="9.4908667"><ele>411.0</ele><time>2026-04-03T15:25:45.153Z</time></trkpt><trkpt lat="45.7561967" lon="9.4907517"><ele>410.0</ele><time>2026-04-03T15:25:47.153Z</time></trkpt><trkpt lat="45.756145" lon="9.4906983"><ele>409.99999999999994</ele><time>2026-04-03T15:25:48.152Z</time></trkpt><trkpt lat="45.7560917" lon="9.49065"><ele>410.0</ele><time>2026-04-03T15:25:49.153Z</time></trkpt><trkpt lat="45.7560317" lon="9.4906017"><ele>410.0</ele><time>2026-04-03T15:25:50.153Z</time></trkpt><trkpt lat="45.7559733" lon="9.49055"><ele>410.0</ele><time>2026-04-03T15:25:51.153Z</time></trkpt><trkpt lat="45.7559183" lon="9.4904967"><ele>409.99999999999994</ele><time>2026-04-03T15:25:52.153Z</time></trkpt><trkpt lat="45.755825" lon="9.490405"><ele>410.0</ele><time>2026-04-03T15:25:54.152Z</time></trkpt><trkpt lat="45.7557533" lon="9.490325"><ele>409.0</ele><time>2026-04-03T15:25:56.153Z</time></trkpt><trkpt lat="45.7556667" lon="9.4903233"><ele>408.0</ele><time>2026-04-03T15:25:58.153Z</time></trkpt><trkpt lat="45.7555683" lon="9.4903833"><ele>407.0</ele><time>2026-04-03T15:26:00.152Z</time></trkpt><trkpt lat="45.7554583" lon="9.490445"><ele>406.0</ele><time>2026-04-03T15:26:02.153Z</time></trkpt><trkpt lat="45.7552817" lon="9.49055"><ele>404.6</ele><time>2026-04-03T15:26:06.154Z</time></trkpt><trkpt lat="45.7551833" lon="9.4905383"><ele>403.20000000000005</ele><time>2026-04-03T15:26:08.154Z</time></trkpt><trkpt lat="45.755075" lon="9.4904983"><ele>401.79999999999995</ele><time>2026-04-03T15:26:10.153Z</time></trkpt><trkpt lat="45.7549733" lon="9.4904467"><ele>400.4</ele><time>2026-04-03T15:26:12.153Z</time></trkpt><trkpt lat="45.7548983" lon="9.4904217"><ele>399.0</ele><time>2026-04-03T15:26:14.153Z</time></trkpt><trkpt lat="45.7548133" lon="9.4904667"><ele>398.8333333333333</ele><time>2026-04-03T15:26:17.153Z</time></trkpt><trkpt lat="45.7547683" lon="9.4905383"><ele>398.66666666666663</ele><time>2026-04-03T15:26:19.153Z</time></trkpt><trkpt lat="45.7547367" lon="9.4906233"><ele>398.5</ele><time>2026-04-03T15:26:21.153Z</time></trkpt><trkpt lat="45.7547017" lon="9.4907067"><ele>398.3333333333333</ele><time>2026-04-03T15:26:23.153Z</time></trkpt><trkpt lat="45.75463" lon="9.490915"><ele>398.16666666666663</ele><time>2026-04-03T15:26:27.153Z</time></trkpt><trkpt lat="45.7546333" lon="9.491015"><ele>398.0</ele><time>2026-04-03T15:26:29.153Z</time></trkpt><trkpt lat="45.7546767" lon="9.4911067"><ele>397.99999999999994</ele><time>2026-04-03T15:26:31.152Z</time></trkpt><trkpt lat="45.7547233" lon="9.491175"><ele>398.0</ele><time>2026-04-03T15:26:33.153Z</time></trkpt><trkpt lat="45.75476" lon="9.491255"><ele>398.0</ele><time>2026-04-03T15:26:36.153Z</time></trkpt><trkpt lat="45.7547083" lon="9.49131"><ele>398.0</ele><time>2026-04-03T15:26:39.153Z</time></trkpt><trkpt lat="45.754635" lon="9.4913183"><ele>398.0</ele><time>2026-04-03T15:26:41.153Z</time></trkpt><trkpt lat="45.7545483" lon="9.4913167"><ele>397.99999999999994</ele><time>2026-04-03T15:26:43.154Z</time></trkpt><trkpt lat="45.7544667" lon="9.491315"><ele>398.0</ele><time>2026-04-03T15:26:45.153Z</time></trkpt><trkpt lat="45.7543317" lon="9.4911417"><ele>395.2</ele><time>2026-04-03T15:26:50.154Z</time></trkpt><trkpt lat="45.7543017" lon="9.4910217"><ele>392.4</ele><time>2026-04-03T15:26:52.153Z</time></trkpt><trkpt lat="45.7542617" lon="9.4909017"><ele>389.59999999999997</ele><time>2026-04-03T15:26:54.153Z</time></trkpt><trkpt lat="45.75419" lon="9.4908083"><ele>386.79999999999995</ele><time>2026-04-03T15:26:57.153Z</time></trkpt><trkpt lat="45.754095" lon="9.4907833"><ele>384.0</ele><time>2026-04-03T15:26:59.155Z</time></trkpt><trkpt lat="45.7540083" lon="9.4907567"><ele>384.0</ele><time>2026-04-03T15:27:01.153Z</time></trkpt><trkpt lat="45.7539317" lon="9.4907317"><ele>384.0</ele><time>2026-04-03T15:27:04.152Z</time></trkpt><trkpt lat="45.7538583" lon="9.4907367"><ele>384.0</ele><time>2026-04-03T15:27:08.153Z</time></trkpt><trkpt lat="45.75384" lon="9.4905117"><ele>384.0</ele><time>2026-04-03T15:27:21.152Z</time></trkpt><trkpt lat="45.7538667" lon="9.4903567"><ele>384.0</ele><time>2026-04-03T15:27:23.153Z</time></trkpt><trkpt lat="45.7538867" lon="9.49027"><ele>383.6</ele><time>2026-04-03T15:27:24.153Z</time></trkpt><trkpt lat="45.7539217" lon="9.4901133"><ele>383.2</ele><time>2026-04-03T15:27:26.153Z</time></trkpt><trkpt lat="45.75394" lon="9.4900067"><ele>382.8</ele><time>2026-04-03T15:27:28.153Z</time></trkpt><trkpt lat="45.7539033" lon="9.4899067"><ele>382.40000000000003</ele><time>2026-04-03T15:27:31.153Z</time></trkpt><trkpt lat="45.75388" lon="9.4897133"><ele>382.0</ele><time>2026-04-03T15:27:35.154Z</time></trkpt><trkpt lat="45.7539" lon="9.4896267"><ele>382.40000000000003</ele><time>2026-04-03T15:27:38.153Z</time></trkpt><trkpt lat="45.7538667" lon="9.4895183"><ele>382.8</ele><time>2026-04-03T15:27:42.153Z</time></trkpt><trkpt lat="45.7538167" lon="9.48945"><ele>383.2</ele><time>2026-04-03T15:27:45.153Z</time></trkpt><trkpt lat="45.7537717" lon="9.489365"><ele>383.6</ele><time>2026-04-03T15:27:48.153Z</time></trkpt><trkpt lat="45.75377" lon="9.4891733"><ele>384.0</ele><time>2026-04-03T15:40:39.153Z</time></trkpt><trkpt lat="45.75384" lon="9.4889417"><ele>384.0</ele><time>2026-04-03T15:40:45.153Z</time></trkpt><trkpt lat="45.75389" lon="9.4888683"><ele>384.0</ele><time>2026-04-03T15:40:47.154Z</time></trkpt><trkpt lat="45.75394" lon="9.4887367"><ele>384.0</ele><time>2026-04-03T15:40:56.155Z</time></trkpt><trkpt lat="45.75393" lon="9.4886167"><ele>384.0</ele><time>2026-04-03T15:40:59.154Z</time></trkpt><trkpt lat="45.75394" lon="9.4884867"><ele>384.0</ele><time>2026-04-03T15:41:02.154Z</time></trkpt><trkpt lat="45.7540083" lon="9.4883367"><ele>385.0</ele><time>2026-04-03T15:41:08.155Z</time></trkpt><trkpt lat="45.754065" lon="9.4882817"><ele>386.0</ele><time>2026-04-03T15:41:11.154Z</time></trkpt><trkpt lat="45.7541267" lon="9.488205"><ele>387.0</ele><time>2026-04-03T15:41:14.154Z</time></trkpt><trkpt lat="45.7541667" lon="9.4881033"><ele>388.0</ele><time>2026-04-03T15:41:19.154Z</time></trkpt><trkpt lat="45.75421" lon="9.4880283"><ele>389.0</ele><time>2026-04-03T15:41:21.153Z</time></trkpt><trkpt lat="45.7542483" lon="9.4879517"><ele>390.0</ele><time>2026-04-03T15:41:24.153Z</time></trkpt><trkpt lat="45.7543817" lon="9.4877867"><ele>390.6666666666667</ele><time>2026-04-03T15:41:40.154Z</time></trkpt><trkpt lat="45.7544383" lon="9.4877467"><ele>391.33333333333337</ele><time>2026-04-03T15:41:42.153Z</time></trkpt><trkpt lat="45.754515" lon="9.487705"><ele>392.0</ele><time>2026-04-03T15:41:45.153Z</time></trkpt><trkpt lat="45.7546617" lon="9.4876817"><ele>392.6666666666667</ele><time>2026-04-03T15:41:51.153Z</time></trkpt><trkpt lat="45.7547267" lon="9.4876983"><ele>393.33333333333337</ele><time>2026-04-03T15:41:55.154Z</time></trkpt><trkpt lat="45.7547933" lon="9.4877167"><ele>394.0</ele><time>2026-04-03T15:41:58.154Z</time></trkpt><trkpt lat="45.754755" lon="9.4876433"><ele>394.0</ele><time>2026-04-03T15:42:59.154Z</time></trkpt><trkpt lat="45.7546033" lon="9.4876267"><ele>394.0</ele><time>2026-04-03T15:43:08.154Z</time></trkpt><trkpt lat="45.7545317" lon="9.487665"><ele>394.0</ele><time>2026-04-03T15:43:11.154Z</time></trkpt><trkpt lat="45.7544433" lon="9.4877183"><ele>394.0</ele><time>2026-04-03T15:43:14.154Z</time></trkpt><trkpt lat="45.75438" lon="9.48774"><ele>394.0</ele><time>2026-04-03T15:43:17.153Z</time></trkpt><trkpt lat="45.7543167" lon="9.4877667"><ele>394.2</ele><time>2026-04-03T15:43:21.154Z</time></trkpt><trkpt lat="45.7541833" lon="9.4879117"><ele>394.4</ele><time>2026-04-03T15:43:28.153Z</time></trkpt><trkpt lat="45.7541367" lon="9.4880017"><ele>394.6</ele><time>2026-04-03T15:43:31.154Z</time></trkpt><trkpt lat="45.75411" lon="9.488085"><ele>394.8</ele><time>2026-04-03T15:43:34.154Z</time></trkpt><trkpt lat="45.7540583" lon="9.48814"><ele>395.0</ele><time>2026-04-03T15:43:36.153Z</time></trkpt><trkpt lat="45.753985" lon="9.4881967"><ele>394.16666666666663</ele><time>2026-04-03T15:43:39.154Z</time></trkpt><trkpt lat="45.7539417" lon="9.4882883"><ele>393.3333333333333</ele><time>2026-04-03T15:43:42.154Z</time></trkpt><trkpt lat="45.7539" lon="9.4884717"><ele>392.5</ele><time>2026-04-03T15:43:46.154Z</time></trkpt><trkpt lat="45.7538917" lon="9.4885617"><ele>391.66666666666663</ele><time>2026-04-03T15:43:48.154Z</time></trkpt><trkpt lat="45.7538883" lon="9.4886583"><ele>390.8333333333333</ele><time>2026-04-03T15:43:51.153Z</time></trkpt><trkpt lat="45.753875" lon="9.4887483"><ele>390.0</ele><time>2026-04-03T15:43:55.154Z</time></trkpt><trkpt lat="45.75383" lon="9.4888517"><ele>388.5</ele><time>2026-04-03T15:43:59.154Z</time></trkpt><trkpt lat="45.7537917" lon="9.4889533"><ele>387.0</ele><time>2026-04-03T15:44:02.153Z</time></trkpt><trkpt lat="45.7537517" lon="9.48913"><ele>385.5</ele><time>2026-04-03T15:44:58.152Z</time></trkpt><trkpt lat="45.7537583" lon="9.4893833"><ele>384.0</ele><time>2026-04-03T15:47:36.153Z</time></trkpt><trkpt lat="45.7538467" lon="9.4895167"><ele>383.6</ele><time>2026-04-03T15:47:40.153Z</time></trkpt><trkpt lat="45.7538217" lon="9.4896183"><ele>383.2</ele><time>2026-04-03T15:47:43.153Z</time></trkpt><trkpt lat="45.7538" lon="9.4897467"><ele>382.8</ele><time>2026-04-03T15:48:46.153Z</time></trkpt><trkpt lat="45.7538983" lon="9.4899067"><ele>382.40000000000003</ele><time>2026-04-03T15:49:01.153Z</time></trkpt><trkpt lat="45.7539017" lon="9.4900433"><ele>382.0</ele><time>2026-04-03T15:49:10.153Z</time></trkpt><trkpt lat="45.7537983" lon="9.4903617"><ele>382.3333333333333</ele><time>2026-04-03T15:49:55.152Z</time></trkpt><trkpt lat="45.75376" lon="9.4905667"><ele>382.66666666666663</ele><time>2026-04-03T15:50:05.153Z</time></trkpt><trkpt lat="45.7537933" lon="9.49065"><ele>383.0</ele><time>2026-04-03T15:50:09.153Z</time></trkpt><trkpt lat="45.7538617" lon="9.4906733"><ele>383.3333333333333</ele><time>2026-04-03T15:50:12.153Z</time></trkpt><trkpt lat="45.7539467" lon="9.4906883"><ele>383.6666666666667</ele><time>2026-04-03T15:50:15.153Z</time></trkpt><trkpt lat="45.7540117" lon="9.4906983"><ele>384.0</ele><time>2026-04-03T15:50:17.153Z</time></trkpt><trkpt lat="45.75416" lon="9.4907267"><ele>384.0</ele><time>2026-04-03T15:50:22.153Z</time></trkpt><trkpt lat="45.754095" lon="9.4907083"><ele>384.0</ele><time>2026-04-03T15:53:09.152Z</time></trkpt><trkpt lat="45.75394" lon="9.4907667"><ele>384.0</ele><time>2026-04-03T15:53:26.153Z</time></trkpt><trkpt lat="45.7539333" lon="9.4908933"><ele>384.0</ele><time>2026-04-03T15:53:29.153Z</time></trkpt><trkpt lat="45.7539233" lon="9.49101"><ele>384.0</ele><time>2026-04-03T15:53:32.154Z</time></trkpt><trkpt lat="45.753925" lon="9.491215"><ele>384.1666666666667</ele><time>2026-04-03T15:53:38.153Z</time></trkpt><trkpt lat="45.75398" lon="9.49128"><ele>384.33333333333337</ele><time>2026-04-03T15:53:40.153Z</time></trkpt><trkpt lat="45.7540283" lon="9.491355"><ele>384.5</ele><time>2026-04-03T15:53:42.154Z</time></trkpt><trkpt lat="45.7540867" lon="9.49142"><ele>384.6666666666667</ele><time>2026-04-03T15:53:45.153Z</time></trkpt><trkpt lat="45.754125" lon="9.4914983"><ele>384.83333333333337</ele><time>2026-04-03T15:53:49.153Z</time></trkpt><trkpt lat="45.7540983" lon="9.4916033"><ele>385.0</ele><time>2026-04-03T15:53:54.153Z</time></trkpt><trkpt lat="45.754045" lon="9.491825"><ele>385.00000000000006</ele><time>2026-04-03T15:53:59.153Z</time></trkpt><trkpt lat="45.7540267" lon="9.4919217"><ele>385.0</ele><time>2026-04-03T15:54:01.154Z</time></trkpt><trkpt lat="45.7540183" lon="9.4920533"><ele>385.0</ele><time>2026-04-03T15:54:04.153Z</time></trkpt><trkpt lat="45.754035" lon="9.4921933"><ele>385.0</ele><time>2026-04-03T15:54:06.153Z</time></trkpt><trkpt lat="45.7540567" lon="9.4923233"><ele>385.00000000000006</ele><time>2026-04-03T15:54:08.153Z</time></trkpt><trkpt lat="45.75407" lon="9.4924383"><ele>385.0</ele><time>2026-04-03T15:54:10.153Z</time></trkpt><trkpt lat="45.7540983" lon="9.49254"><ele>386.0</ele><time>2026-04-03T15:54:12.153Z</time></trkpt><trkpt lat="45.7541217" lon="9.4926483"><ele>387.0</ele><time>2026-04-03T15:54:14.153Z</time></trkpt><trkpt lat="45.7541117" lon="9.4927633"><ele>388.0</ele><time>2026-04-03T15:54:16.153Z</time></trkpt><trkpt lat="45.7540383" lon="9.492965"><ele>389.0</ele><time>2026-04-03T15:54:21.153Z</time></trkpt><trkpt lat="45.7539233" lon="9.493105"><ele>389.3333333333333</ele><time>2026-04-03T15:54:31.153Z</time></trkpt><trkpt lat="45.7538533" lon="9.4931767"><ele>389.66666666666663</ele><time>2026-04-03T15:54:34.153Z</time></trkpt><trkpt lat="45.7537933" lon="9.4932133"><ele>390.0</ele><time>2026-04-03T15:54:36.153Z</time></trkpt><trkpt lat="45.7537317" lon="9.4932633"><ele>390.33333333333337</ele><time>2026-04-03T15:54:38.154Z</time></trkpt><trkpt lat="45.75364" lon="9.4934217"><ele>390.6666666666667</ele><time>2026-04-03T15:54:42.153Z</time></trkpt><trkpt lat="45.75361" lon="9.4935283"><ele>391.0</ele><time>2026-04-03T15:54:44.153Z</time></trkpt><trkpt lat="45.753585" lon="9.4936183"><ele>391.00000000000006</ele><time>2026-04-03T15:54:46.153Z</time></trkpt><trkpt lat="45.7535583" lon="9.4937167"><ele>391.0</ele><time>2026-04-03T15:54:48.154Z</time></trkpt><trkpt lat="45.7535233" lon="9.4938183"><ele>391.0</ele><time>2026-04-03T15:54:50.154Z</time></trkpt><trkpt lat="45.7534983" lon="9.4939283"><ele>391.0</ele><time>2026-04-03T15:54:52.153Z</time></trkpt><trkpt lat="45.753465" lon="9.4940283"><ele>391.00000000000006</ele><time>2026-04-03T15:54:54.154Z</time></trkpt><trkpt lat="45.7534233" lon="9.494145"><ele>391.0</ele><time>2026-04-03T15:54:57.153Z</time></trkpt><trkpt lat="45.7533733" lon="9.4942417"><ele>391.8</ele><time>2026-04-03T15:54:59.153Z</time></trkpt><trkpt lat="45.7532117" lon="9.4943317"><ele>392.6</ele><time>2026-04-03T15:55:03.153Z</time></trkpt><trkpt lat="45.7531717" lon="9.494405"><ele>393.4</ele><time>2026-04-03T15:55:06.154Z</time></trkpt><trkpt lat="45.753135" lon="9.49451"><ele>394.2</ele><time>2026-04-03T15:55:09.154Z</time></trkpt><trkpt lat="45.7530883" lon="9.494595"><ele>395.0</ele><time>2026-04-03T15:55:11.154Z</time></trkpt><trkpt lat="45.7530533" lon="9.494695"><ele>395.0</ele><time>2026-04-03T15:55:13.155Z</time></trkpt><trkpt lat="45.7530217" lon="9.4948033"><ele>395.0</ele><time>2026-04-03T15:55:15.153Z</time></trkpt><trkpt lat="45.7529917" lon="9.49491"><ele>395.0</ele><time>2026-04-03T15:55:18.153Z</time></trkpt><trkpt lat="45.7529133" lon="9.4948867"><ele>395.0</ele><time>2026-04-03T15:55:35.154Z</time></trkpt><trkpt lat="45.7528083" lon="9.4946867"><ele>395.0</ele><time>2026-04-03T15:55:39.153Z</time></trkpt><trkpt lat="45.7527683" lon="9.4945767"><ele>395.2</ele><time>2026-04-03T15:55:41.153Z</time></trkpt><trkpt lat="45.7527383" lon="9.4944417"><ele>395.4</ele><time>2026-04-03T15:55:43.153Z</time></trkpt><trkpt lat="45.7527117" lon="9.49434"><ele>395.6</ele><time>2026-04-03T15:55:46.154Z</time></trkpt><trkpt lat="45.7527433" lon="9.4942283"><ele>395.8</ele><time>2026-04-03T15:55:53.153Z</time></trkpt><trkpt lat="45.7527067" lon="9.4941467"><ele>396.0</ele><time>2026-04-03T16:00:08.155Z</time></trkpt><trkpt lat="45.752535" lon="9.494145"><ele>398.0</ele><time>2026-04-03T16:00:13.154Z</time></trkpt><trkpt lat="45.7524733" lon="9.4941733"><ele>400.0</ele><time>2026-04-03T16:00:16.154Z</time></trkpt><trkpt lat="45.7524533" lon="9.4942683"><ele>402.0</ele><time>2026-04-03T16:00:19.153Z</time></trkpt><trkpt lat="45.75239" lon="9.4943217"><ele>404.0</ele><time>2026-04-03T16:00:22.154Z</time></trkpt><trkpt lat="45.7523117" lon="9.4942733"><ele>406.0</ele><time>2026-04-03T16:00:25.153Z</time></trkpt><trkpt lat="45.7522383" lon="9.4942033"><ele>408.0</ele><time>2026-04-03T16:00:28.153Z</time></trkpt><trkpt lat="45.752265" lon="9.494115"><ele>410.0</ele><time>2026-04-03T16:00:31.153Z</time></trkpt><trkpt lat="45.75241" lon="9.4940717"><ele>410.0</ele><time>2026-04-03T16:01:13.153Z</time></trkpt><trkpt lat="45.7525471" lon="9.4941734"><ele>410.0</ele><time>2026-04-03T16:01:39.224Z</time></trkpt><trkpt lat="45.7526943" lon="9.4942268"><ele>410.0</ele><time>2026-04-03T16:01:49.163Z</time></trkpt><trkpt lat="45.7527488" lon="9.494298"><ele>410.0</ele><time>2026-04-03T16:02:02.238Z</time></trkpt><trkpt lat="45.7527515" lon="9.4945268"><ele>406.25</ele><time>2026-04-03T16:02:19.888Z</time></trkpt><trkpt lat="45.7529202" lon="9.4948117"><ele>402.5</ele><time>2026-04-03T16:02:41.183Z</time></trkpt><trkpt lat="45.7530048" lon="9.4948914"><ele>398.75</ele><time>2026-04-03T16:03:09.099Z</time></trkpt><trkpt lat="45.7530109" lon="9.4947923"><ele>395.0</ele><time>2026-04-03T16:03:16.154Z</time></trkpt><trkpt lat="45.7530741" lon="9.4946222"><ele>395.16666666666663</ele><time>2026-04-03T16:03:27.153Z</time></trkpt><trkpt lat="45.7531222" lon="9.4945407"><ele>395.3333333333333</ele><time>2026-04-03T16:03:33.199Z</time></trkpt><trkpt lat="45.7531289" lon="9.4944504"><ele>395.5</ele><time>2026-04-03T16:04:25.153Z</time></trkpt><trkpt lat="45.7532254" lon="9.494327"><ele>395.66666666666663</ele><time>2026-04-03T16:04:38.212Z</time></trkpt><trkpt lat="45.7532841" lon="9.4942787"><ele>395.8333333333333</ele><time>2026-04-03T16:04:45.188Z</time></trkpt><trkpt lat="45.7533443" lon="9.4942246"><ele>396.0</ele><time>2026-04-03T16:04:50.2Z</time></trkpt><trkpt lat="45.7533973" lon="9.4940385"><ele>396.0</ele><time>2026-04-03T16:04:59.243Z</time></trkpt><trkpt lat="45.753426" lon="9.493955"><ele>396.0</ele><time>2026-04-03T16:05:04.235Z</time></trkpt><trkpt lat="45.7534658" lon="9.4938632"><ele>396.0</ele><time>2026-04-03T16:05:09.133Z</time></trkpt><trkpt lat="45.753482" lon="9.4937735"><ele>396.0</ele><time>2026-04-03T16:05:13.146Z</time></trkpt><trkpt lat="45.7535255" lon="9.4935865"><ele>396.0</ele><time>2026-04-03T16:05:24.212Z</time></trkpt><trkpt lat="45.7535739" lon="9.4935087"><ele>396.0</ele><time>2026-04-03T16:05:30.081Z</time></trkpt><trkpt lat="45.7536205" lon="9.4934245"><ele>395.0</ele><time>2026-04-03T16:05:35.226Z</time></trkpt><trkpt lat="45.7536815" lon="9.4932563"><ele>394.0</ele><time>2026-04-03T16:05:47.212Z</time></trkpt><trkpt lat="45.753732" lon="9.4931956"><ele>393.0</ele><time>2026-04-03T16:05:51.207Z</time></trkpt><trkpt lat="45.753786" lon="9.4931344"><ele>392.0</ele><time>2026-04-03T16:05:57.153Z</time></trkpt><trkpt lat="45.7539086" lon="9.4930261"><ele>391.0</ele><time>2026-04-03T16:06:09.153Z</time></trkpt><trkpt lat="45.753949" lon="9.4929409"><ele>390.6</ele><time>2026-04-03T16:06:15.183Z</time></trkpt><trkpt lat="45.7540022" lon="9.4928695"><ele>390.20000000000005</ele><time>2026-04-03T16:06:21.161Z</time></trkpt><trkpt lat="45.7540311" lon="9.4926801"><ele>389.79999999999995</ele><time>2026-04-03T16:06:32.153Z</time></trkpt><trkpt lat="45.7540317" lon="9.4925814"><ele>389.4</ele><time>2026-04-03T16:06:37.212Z</time></trkpt><trkpt lat="45.7540124" lon="9.4924911"><ele>389.0</ele><time>2026-04-03T16:06:41.207Z</time></trkpt><trkpt lat="45.7539798" lon="9.4922944"><ele>388.99999999999994</ele><time>2026-04-03T16:06:50.174Z</time></trkpt><trkpt lat="45.7539813" lon="9.4921821"><ele>389.0</ele><time>2026-04-03T16:06:55.224Z</time></trkpt><trkpt lat="45.753987" lon="9.492078"><ele>389.0</ele><time>2026-04-03T16:07:00.061Z</time></trkpt><trkpt lat="45.7539942" lon="9.4919769"><ele>389.0</ele><time>2026-04-03T16:07:05.199Z</time></trkpt><trkpt lat="45.7540381" lon="9.4917799"><ele>388.99999999999994</ele><time>2026-04-03T16:07:15.152Z</time></trkpt><trkpt lat="45.7540656" lon="9.491677"><ele>389.0</ele><time>2026-04-03T16:07:20.198Z</time></trkpt><trkpt lat="45.7540818" lon="9.491572"><ele>388.2</ele><time>2026-04-03T16:07:25.248Z</time></trkpt><trkpt lat="45.7540623" lon="9.4914811"><ele>387.4</ele><time>2026-04-03T16:07:30.153Z</time></trkpt><trkpt lat="45.7539734" lon="9.4913259"><ele>386.6</ele><time>2026-04-03T16:07:41.153Z</time></trkpt><trkpt lat="45.7539296" lon="9.4912474"><ele>385.8</ele><time>2026-04-03T16:07:47.193Z</time></trkpt><trkpt lat="45.7538809" lon="9.4911868"><ele>385.0</ele><time>2026-04-03T16:07:57.153Z</time></trkpt><trkpt lat="45.754045" lon="9.4913633"><ele>385.0</ele><time>2026-04-03T16:08:47.153Z</time></trkpt><trkpt lat="45.7540983" lon="9.491415"><ele>385.0</ele><time>2026-04-03T16:08:55.153Z</time></trkpt><trkpt lat="45.7541467" lon="9.4914767"><ele>385.0</ele><time>2026-04-03T16:09:03.153Z</time></trkpt><trkpt lat="45.7540823" lon="9.4918137"><ele>385.0</ele><time>2026-04-03T16:09:49.153Z</time></trkpt><trkpt lat="45.75403" lon="9.4919904"><ele>386.0</ele><time>2026-04-03T16:10:06.191Z</time></trkpt><trkpt lat="45.7540297" lon="9.4920954"><ele>387.0</ele><time>2026-04-03T16:10:12.153Z</time></trkpt><trkpt lat="45.7540625" lon="9.492276"><ele>388.0</ele><time>2026-04-03T16:10:27.153Z</time></trkpt><trkpt lat="45.7540817" lon="9.4923635"><ele>389.0</ele><time>2026-04-03T16:10:35.239Z</time></trkpt><trkpt lat="45.7541239" lon="9.4926501"><ele>389.0</ele><time>2026-04-03T16:11:26.161Z</time></trkpt><trkpt lat="45.7541384" lon="9.492742"><ele>389.0</ele><time>2026-04-03T16:11:35.175Z</time></trkpt><trkpt lat="45.7541045" lon="9.492887"><ele>389.0</ele><time>2026-04-03T16:11:56.232Z</time></trkpt><trkpt lat="45.7539999" lon="9.4931128"><ele>389.0</ele><time>2026-04-03T16:12:51.209Z</time></trkpt><trkpt lat="45.7538912" lon="9.4932245"><ele>389.5</ele><time>2026-04-03T16:13:04.167Z</time></trkpt><trkpt lat="45.7538367" lon="9.4932749"><ele>390.0</ele><time>2026-04-03T16:13:12.182Z</time></trkpt><trkpt lat="45.7537231" lon="9.4933854"><ele>390.5</ele><time>2026-04-03T16:13:24.155Z</time></trkpt><trkpt lat="45.7536583" lon="9.493532"><ele>391.0</ele><time>2026-04-03T16:13:50.249Z</time></trkpt><trkpt lat="45.7535952" lon="9.4937073"><ele>392.0</ele><time>2026-04-03T16:14:03.249Z</time></trkpt><trkpt lat="45.7535788" lon="9.4937961"><ele>393.0</ele><time>2026-04-03T16:14:09.188Z</time></trkpt><trkpt lat="45.7535553" lon="9.4938827"><ele>394.0</ele><time>2026-04-03T16:14:18.155Z</time></trkpt><trkpt lat="45.7534709" lon="9.4940271"><ele>395.0</ele><time>2026-04-03T16:14:34.155Z</time></trkpt><trkpt lat="45.7534645" lon="9.4941196"><ele>396.0</ele><time>2026-04-03T16:14:40.18Z</time></trkpt><trkpt lat="45.753405" lon="9.4942809"><ele>396.0</ele><time>2026-04-03T16:14:57.156Z</time></trkpt><trkpt lat="45.753356" lon="9.4943534"><ele>396.0</ele><time>2026-04-03T16:15:04.17Z</time></trkpt><trkpt lat="45.7532209" lon="9.4943484"><ele>396.0</ele><time>2026-04-03T16:15:22.19Z</time></trkpt><trkpt lat="45.7025246" lon="9.6811209"><ele>350.6666666666667</ele><time>2026-04-05T04:17:11.951Z</time></trkpt><trkpt lat="45.702665" lon="9.6812917"><ele>305.33333333333337</ele><time>2026-04-05T06:45:52.198Z</time></trkpt><trkpt lat="45.7027467" lon="9.68114"><ele>260.0</ele><time>2026-04-05T06:45:57.152Z</time></trkpt><trkpt lat="45.7025028" lon="9.6811338"><ele>260.0</ele><time>2026-04-05T06:46:13.484Z</time></trkpt><trkpt lat="45.70252" lon="9.68136"><ele>260.0</ele><time>2026-04-05T06:46:57.153Z</time></trkpt><trkpt lat="45.7025933" lon="9.6813483"><ele>260.0</ele><time>2026-04-05T06:47:00.153Z</time></trkpt><trkpt lat="45.7026183" lon="9.6812567"><ele>260.0</ele><time>2026-04-05T06:47:08.154Z</time></trkpt><trkpt lat="45.702545" lon="9.6815133"><ele>260.0</ele><time>2026-04-05T07:00:57.744Z</time></trkpt><trkpt lat="45.7025477" lon="9.6810864"><ele>260.0</ele><time>2026-04-05T07:02:43.226Z</time></trkpt><trkpt lat="45.7025383" lon="9.6815467"><ele>260.0</ele><time>2026-04-05T07:02:45.108Z</time></trkpt><trkpt lat="45.70254" lon="9.6814467"><ele>260.0</ele><time>2026-04-05T07:03:01.153Z</time></trkpt><trkpt lat="45.7025383" lon="9.6813417"><ele>260.0</ele><time>2026-04-05T07:03:06.153Z</time></trkpt></trkseg></trk></gpx>